Time;durP1;ratioP1;P1;durP2;ratioP2;P2;SDS_P1;SDS_P2;PMS_P1;PMS_P2;Temp;Humidity;BMP_temperature;BMP_pressure;BME280_temperature;BME280_humidity;BME280_pressure;Samples;Min_cycle;Max_cycle;Signal;HPM_P1;HPM_P2
2021/04/27 00:00:23;;;;;;;36.35;13.75;;;;;;;22.65;13.64;98125.75;5042535;28;20047;-85
2021/04/27 00:02:49;;;;;;;28.50;10.95;;;;;;;22.60;14.17;98115.00;5052807;28;20426;-85
2021/04/27 00:05:17;;;;;;;21.13;8.48;;;;;;;23.05;13.19;98112.72;5035155;28;20029;-85
2021/04/27 00:07:44;;;;;;;16.13;7.35;;;;;;;23.46;12.80;98112.38;5037016;28;20037;-85
2021/04/27 00:10:12;;;;;;;16.27;7.00;;;;;;;23.76;12.34;98104.56;5036759;28;20037;-84
2021/04/27 00:12:38;;;;;;;17.75;7.00;;;;;;;23.98;12.80;98105.72;5045397;28;20041;-85
2021/04/27 00:15:08;;;;;;;18.55;7.72;;;;;;;24.26;12.31;98097.94;5035570;28;20033;-85
2021/04/27 00:17:35;;;;;;;15.63;6.97;;;;;;;23.71;13.59;98107.09;5043912;28;20029;-85
2021/04/27 00:20:02;;;;;;;16.17;7.35;;;;;;;23.56;13.54;98109.41;5041892;28;20041;-84
2021/04/27 00:22:28;;;;;;;17.20;7.32;;;;;;;23.71;12.78;98102.28;5044086;28;20472;-85
2021/04/27 00:24:54;;;;;;;17.50;7.15;;;;;;;23.70;12.60;98097.91;5041257;28;20033;-85
2021/04/27 00:27:20;;;;;;;20.50;7.75;;;;;;;24.01;12.25;98101.28;5044766;28;20094;-85
2021/04/27 00:29:46;;;;;;;18.80;7.07;;;;;;;24.25;12.39;98099.19;5038896;28;20057;-85
2021/04/27 00:32:13;;;;;;;16.80;7.25;;;;;;;24.28;12.37;98090.69;5042644;28;20112;-85
2021/04/27 00:34:39;;;;;;;16.30;6.60;;;;;;;24.36;12.63;98096.91;5041679;28;20398;-85
2021/04/27 00:37:05;;;;;;;18.60;7.90;;;;;;;23.54;13.63;98092.22;5037310;28;20124;-85
2021/04/27 00:39:31;;;;;;;15.20;6.32;;;;;;;23.65;13.33;98089.19;5036289;28;20041;-85
2021/04/27 00:41:57;;;;;;;18.00;7.05;;;;;;;23.94;12.49;98085.38;5038434;28;20394;-85
2021/04/27 00:44:23;;;;;;;22.45;8.55;;;;;;;24.02;12.73;98083.19;5034408;28;20468;-84
2021/04/27 00:46:49;;;;;;;20.77;7.45;;;;;;;24.04;12.47;98081.56;5036592;28;20036;-85
2021/04/27 00:49:15;;;;;;;17.38;7.05;;;;;;;23.15;13.92;98078.91;5033919;28;20033;-85
2021/04/27 00:51:42;;;;;;;17.83;6.65;;;;;;;22.86;13.81;98079.84;5033685;28;20029;-85
2021/04/27 00:54:08;;;;;;;14.63;6.22;;;;;;;22.50;14.00;98083.19;5033553;28;20065;-85
2021/04/27 00:56:35;;;;;;;13.32;5.38;;;;;;;22.87;13.79;98079.41;5036111;28;20553;-85
2021/04/27 00:59:02;;;;;;;16.88;6.78;;;;;;;23.36;13.23;98072.16;5033575;28;20044;-85
2021/04/27 01:01:28;;;;;;;20.00;7.88;;;;;;;23.61;13.31;98063.25;5043919;28;20048;-85
2021/04/27 01:03:54;;;;;;;21.33;8.68;;;;;;;23.86;13.11;98066.31;5035410;28;20084;-85
2021/04/27 01:06:21;;;;;;;24.17;10.95;;;;;;;23.94;13.32;98068.53;5038339;28;20033;-85
2021/04/27 01:08:54;;;;;;;24.45;9.48;;;;;;;23.96;12.73;98068.91;5035286;28;20042;-85
2021/04/27 01:11:39;;;;;;;24.52;10.75;;;;;;;23.38;13.89;98072.53;5032053;28;20033;-85
2021/04/27 01:14:35;;;;;;;23.90;9.80;;;;;;;23.09;13.56;98077.81;5037625;28;20502;-85
2021/04/27 01:17:10;;;;;;;21.63;9.05;;;;;;;23.26;13.33;98065.50;5047463;28;20390;-85
2021/04/27 01:20:04;;;;;;;23.70;9.57;;;;;;;23.16;13.64;98066.50;5038664;28;20112;-85
2021/04/27 01:22:58;;;;;;;23.15;9.35;;;;;;;22.60;14.38;98065.47;5041552;28;20033;-84
2021/04/27 01:25:55;;;;;;;15.82;7.40;;;;;;;22.38;14.67;98066.19;5037603;28;20033;-85
2021/04/27 01:28:23;;;;;;;19.95;8.55;;;;;;;22.45;14.15;98072.47;5050273;28;20120;-85
2021/04/27 01:30:50;;;;;;;19.10;7.15;;;;;;;22.64;13.50;98063.38;5042706;28;20037;-84
2021/04/27 01:33:20;;;;;;;22.17;8.02;;;;;;;22.64;13.80;98069.00;5050094;28;20026;-85
2021/04/27 01:35:48;;;;;;;17.88;7.25;;;;;;;22.38;13.95;98057.81;5045549;28;20105;-84
2021/04/27 01:38:17;;;;;;;22.00;8.95;;;;;;;21.99;14.09;98061.16;5044086;28;20037;-84
2021/04/27 01:40:43;;;;;;;19.95;7.47;;;;;;;22.21;13.72;98061.66;5037243;28;20029;-84
2021/04/27 01:43:09;;;;;;;19.92;7.03;;;;;;;22.33;13.60;98070.28;5049454;28;20479;-85
2021/04/27 01:45:37;;;;;;;17.15;7.05;;;;;;;21.99;14.37;98061.16;5044124;28;20037;-85
2021/04/27 01:48:04;;;;;;;15.80;6.13;;;;;;;21.95;13.60;98066.00;5037020;28;20037;-85
2021/04/27 01:50:30;;;;;;;16.48;6.55;;;;;;;22.31;13.63;98066.31;5052684;28;20079;-84
2021/04/27 01:52:57;;;;;;;19.17;7.20;;;;;;;22.57;12.95;98071.06;5041686;28;20485;-85
2021/04/27 01:55:24;;;;;;;16.75;6.28;;;;;;;22.71;12.80;98058.91;5042371;28;20033;-84
2021/04/27 01:57:51;;;;;;;16.77;6.45;;;;;;;22.71;12.83;98064.50;5036791;28;20041;-84
2021/04/27 02:00:21;;;;;;;17.17;7.30;;;;;;;22.40;13.13;98058.97;5044136;28;20076;-84
2021/04/27 02:02:49;;;;;;;19.23;7.77;;;;;;;22.49;13.28;98067.63;5040472;28;20499;-84
2021/04/27 02:05:16;;;;;;;16.27;6.20;;;;;;;22.56;13.19;98064.72;5037519;28;20268;-85
2021/04/27 02:07:42;;;;;;;19.67;6.40;;;;;;;22.46;13.03;98065.66;5046389;28;20098;-84
2021/04/27 02:10:11;;;;;;;16.10;6.50;;;;;;;22.55;13.06;98067.91;5046951;28;20044;-84
2021/04/27 02:12:46;;;;;;;14.10;6.50;;;;;;;22.44;13.10;98062.50;5041869;28;20510;-84
2021/04/27 02:15:17;;;;;;;13.75;6.35;;;;;;;22.32;13.36;98063.09;5037086;28;20040;-84
2021/04/27 02:17:53;;;;;;;19.90;7.57;;;;;;;22.28;13.33;98059.56;5039721;28;20032;-84
2021/04/27 02:20:24;;;;;;;14.75;6.90;;;;;;;22.12;13.74;98064.19;5043372;28;20164;-84
2021/04/27 02:22:52;;;;;;;11.85;5.60;;;;;;;21.73;14.10;98064.66;5040959;28;20030;-84
2021/04/27 02:25:22;;;;;;;19.65;6.55;;;;;;;21.38;14.18;98063.09;5042584;28;20388;-84
2021/04/27 02:27:48;;;;;;;10.65;4.22;;;;;;;21.76;13.84;98059.03;5049016;28;20406;-84
2021/04/27 02:30:18;;;;;;;10.77;3.80;;;;;;;21.90;13.77;98055.28;5041296;28;20030;-84
2021/04/27 02:32:45;;;;;;;9.15;3.88;;;;;;;21.92;14.26;98062.06;5039393;28;20033;-84
2021/04/27 02:35:13;;;;;;;6.38;3.38;;;;;;;21.66;14.25;98059.97;5041964;28;20494;-84
2021/04/27 02:37:45;;;;;;;7.95;3.22;;;;;;;21.65;14.21;98057.59;5048207;28;20433;-84
2021/04/27 02:40:15;;;;;;;8.63;3.13;;;;;;;21.69;13.99;98063.94;5053168;28;20037;-84
2021/04/27 02:42:47;;;;;;;9.10;3.83;;;;;;;21.82;13.42;98054.56;5045227;28;20486;-82
2021/04/27 02:45:13;;;;;;;8.40;3.60;;;;;;;22.15;13.11;98058.53;5043729;28;20029;-83
2021/04/27 02:47:39;;;;;;;7.68;3.28;;;;;;;22.36;12.79;98052.63;5048611;28;20033;-84
2021/04/27 02:50:06;;;;;;;9.50;3.55;;;;;;;22.41;12.76;98054.16;5048046;28;20029;-84
2021/04/27 02:52:32;;;;;;;8.43;3.45;;;;;;;22.49;12.63;98048.03;5035214;28;20087;-84
2021/04/27 02:54:58;;;;;;;8.23;3.70;;;;;;;22.57;12.73;98057.88;5036603;28;20036;-84
2021/04/27 02:57:24;;;;;;;12.75;4.78;;;;;;;22.29;12.98;98054.72;5034148;28;20045;-84
2021/04/27 02:59:50;;;;;;;9.65;4.60;;;;;;;22.04;13.13;98049.50;5044025;28;20084;-84
2021/04/27 03:02:16;;;;;;;11.27;4.93;;;;;;;22.05;13.13;98051.09;5039822;28;20220;-83
2021/04/27 03:04:42;;;;;;;13.05;5.35;;;;;;;21.87;13.36;98050.53;5049404;28;20033;-84
2021/04/27 03:07:08;;;;;;;12.68;5.47;;;;;;;21.88;13.34;98066.09;5041149;28;20067;-84
2021/04/27 03:09:35;;;;;;;13.77;5.35;;;;;;;22.03;13.25;98056.34;5036598;28;20084;-84
2021/04/27 03:12:03;;;;;;;14.63;5.47;;;;;;;22.06;13.31;98051.88;5035584;28;20025;-84
2021/04/27 03:14:29;;;;;;;14.23;5.03;;;;;;;21.91;13.50;98056.91;5038768;28;20517;-83
2021/04/27 03:16:55;;;;;;;13.63;5.35;;;;;;;21.91;13.43;98054.88;5039552;28;20052;-83
2021/04/27 03:19:21;;;;;;;10.55;5.18;;;;;;;22.03;13.53;98057.09;5041316;28;20513;-83
2021/04/27 03:21:47;;;;;;;8.77;4.20;;;;;;;21.92;13.31;98056.47;5046338;28;20388;-83
2021/04/27 03:24:13;;;;;;;11.05;4.80;;;;;;;22.02;13.23;98057.53;5046036;28;20490;-83
2021/04/27 03:26:40;;;;;;;10.93;4.72;;;;;;;22.18;13.15;98063.28;5040329;28;20060;-83
2021/04/27 03:29:06;;;;;;;8.52;4.15;;;;;;;22.17;12.88;98064.50;5039379;28;20033;-83
2021/04/27 03:31:32;;;;;;;10.32;3.92;;;;;;;22.15;12.98;98057.75;5049063;28;20033;-83
2021/04/27 03:33:59;;;;;;;10.27;4.20;;;;;;;22.19;12.90;98067.69;5043247;28;20029;-83
2021/04/27 03:36:25;;;;;;;9.95;3.63;;;;;;;22.27;12.86;98063.56;5046831;28;20456;-83
2021/04/27 03:38:51;;;;;;;7.72;3.28;;;;;;;22.32;12.94;98070.66;5043293;28;20090;-83
2021/04/27 03:41:17;;;;;;;9.57;3.58;;;;;;;22.31;12.86;98061.47;5042691;28;20033;-83
2021/04/27 03:43:44;;;;;;;7.50;3.42;;;;;;;22.43;12.64;98062.91;5043575;28;20026;-83
2021/04/27 03:46:10;;;;;;;8.07;3.75;;;;;;;22.49;12.83;98072.41;5035345;28;20036;-83
2021/04/27 03:48:36;;;;;;;13.07;3.42;;;;;;;22.55;12.60;98065.91;5037496;28;20030;-83
2021/04/27 03:51:02;;;;;;;10.73;4.90;;;;;;;22.12;13.47;98072.56;5039933;28;20032;-83
2021/04/27 03:53:28;;;;;;;8.23;4.00;;;;;;;21.91;13.34;98070.88;5049211;28;20053;-83
2021/04/27 03:55:54;;;;;;;14.63;5.38;;;;;;;21.77;14.20;98071.81;5039655;28;20028;-83
2021/04/27 03:58:20;;;;;;;12.07;5.95;;;;;;;21.16;14.87;98078.50;5034960;28;20521;-83
2021/04/27 04:00:47;;;;;;;9.90;4.40;;;;;;;21.58;14.17;98066.06;5036621;28;20041;-83
2021/04/27 04:03:13;;;;;;;13.02;5.25;;;;;;;22.47;13.62;98070.06;5041074;28;20116;-83
2021/04/27 04:05:39;;;;;;;12.55;5.53;;;;;;;23.35;13.07;98067.78;5042858;28;20041;-83
2021/04/27 04:08:06;;;;;;;11.38;4.97;;;;;;;23.98;12.89;98069.28;5036165;28;20479;-84
2021/04/27 04:10:32;;;;;;;10.95;5.22;;;;;;;24.21;12.52;98074.00;5042189;28;20053;-84
2021/04/27 04:12:58;;;;;;;12.85;5.07;;;;;;;24.26;12.45;98079.09;5043438;28;20037;-83
2021/04/27 04:15:24;;;;;;;10.40;3.80;;;;;;;24.37;12.44;98076.03;5053648;28;20075;-83
2021/04/27 04:17:50;;;;;;;6.93;3.80;;;;;;;24.68;11.92;98069.69;5037814;28;20038;-84
2021/04/27 04:20:22;;;;;;;8.55;3.72;;;;;;;25.04;12.33;98069.59;5043481;28;20049;-84
2021/04/27 04:22:50;;;;;;;10.93;4.45;;;;;;;25.34;12.13;98083.22;5032967;28;20498;-84
2021/04/27 04:25:17;;;;;;;10.68;4.32;;;;;;;25.67;11.84;98086.75;5041248;28;20477;-84
2021/04/27 04:27:44;;;;;;;11.23;4.97;;;;;;;25.84;12.02;98085.47;5046793;28;20386;-83
2021/04/27 04:30:20;;;;;;;11.80;4.82;;;;;;;25.34;12.72;98088.84;5050992;28;20494;-83
2021/04/27 04:32:47;;;;;;;9.77;4.25;;;;;;;25.02;12.68;98091.72;5048378;28;20037;-83
2021/04/27 04:35:15;;;;;;;11.40;3.95;;;;;;;24.95;13.26;98093.94;5043021;28;20116;-84
2021/04/27 04:37:42;;;;;;;8.90;4.07;;;;;;;24.84;13.17;98097.00;5047363;28;20044;-84
2021/04/27 04:40:11;;;;;;;7.65;3.90;;;;;;;24.64;13.36;98096.25;5054361;28;20424;-84
2021/04/27 04:42:38;;;;;;;11.32;4.30;;;;;;;24.81;13.28;98102.72;5048634;28;20037;-84
2021/04/27 04:45:06;;;;;;;13.68;5.18;;;;;;;25.07;13.21;98102.41;5047777;28;20095;-84
2021/04/27 04:47:33;;;;;;;10.70;4.40;;;;;;;25.28;13.13;98107.50;5041066;28;20030;-84
2021/04/27 04:50:00;;;;;;;10.40;5.28;;;;;;;25.63;12.79;98113.41;5050630;28;20040;-84
2021/04/27 04:52:26;;;;;;;10.18;5.00;;;;;;;25.32;13.09;98108.19;5051566;28;20032;-84
2021/04/27 04:54:52;;;;;;;8.23;5.25;;;;;;;25.32;13.06;98110.22;5043997;28;20098;-83
2021/04/27 04:57:19;;;;;;;10.98;5.15;;;;;;;25.26;13.56;98121.19;5041987;28;20037;-83
2021/04/27 04:59:45;;;;;;;9.63;5.15;;;;;;;24.87;13.80;98112.97;5045797;28;20087;-84
2021/04/27 05:02:11;;;;;;;9.18;4.68;;;;;;;24.65;13.94;98106.25;5047848;28;20054;-84
2021/04/27 05:04:37;;;;;;;10.57;5.80;;;;;;;24.86;13.57;98108.56;5040700;28;20039;-83
2021/04/27 05:07:10;;;;;;;8.65;4.70;;;;;;;25.04;13.56;98108.16;5042893;28;20108;-84
2021/04/27 05:09:36;;;;;;;14.05;6.43;;;;;;;25.32;13.46;98116.63;5037163;28;20040;-83
2021/04/27 05:12:03;;;;;;;9.93;5.28;;;;;;;25.87;13.13;98114.75;5038746;28;20043;-85
2021/04/27 05:14:31;;;;;;;12.25;5.40;;;;;;;26.55;12.92;98101.03;5036871;28;20116;-83
2021/04/27 05:16:59;;;;;;;10.82;5.30;;;;;;;27.08;12.83;98104.16;5033610;28;20127;-83
2021/04/27 05:19:26;;;;;;;9.88;5.00;;;;;;;27.24;12.28;98110.44;5044202;28;20120;-83
2021/04/27 05:21:52;;;;;;;9.07;4.55;;;;;;;27.45;11.49;98111.75;5040364;28;20108;-83
2021/04/27 05:24:20;;;;;;;8.18;4.47;;;;;;;27.66;11.49;98113.84;5040454;28;20041;-84
2021/04/27 05:26:46;;;;;;;9.05;3.97;;;;;;;27.88;11.11;98117.47;5041474;28;20028;-83
2021/04/27 05:29:13;;;;;;;12.30;6.03;;;;;;;26.50;11.45;98115.69;5046142;28;20546;-83
2021/04/27 05:31:40;;;;;;;8.18;4.43;;;;;;;26.29;11.54;98124.00;5042054;28;20060;-83
2021/04/27 05:34:06;;;;;;;11.38;5.35;;;;;;;25.81;12.83;98130.59;5039520;28;20033;-84
2021/04/27 05:36:32;;;;;;;14.90;5.55;;;;;;;25.83;12.19;98133.75;5039189;28;20104;-84
2021/04/27 05:38:59;;;;;;;12.07;5.25;;;;;;;25.96;12.15;98124.13;5037718;28;20120;-84
2021/04/27 05:41:25;;;;;;;10.60;5.38;;;;;;;25.90;12.41;98123.09;5039067;28;20065;-86
2021/04/27 05:43:51;;;;;;;13.52;5.25;;;;;;;25.97;12.65;98125.72;5043251;28;20041;-86
2021/04/27 05:46:18;;;;;;;8.75;4.18;;;;;;;25.42;11.88;98126.00;5045842;28;20486;-88
2021/04/27 05:48:44;;;;;;;12.52;4.75;;;;;;;25.41;13.04;98119.56;5039600;28;20044;-89
2021/04/27 05:51:10;;;;;;;7.45;3.63;;;;;;;26.01;12.06;98125.59;5038382;28;20032;-89
2021/04/27 05:53:36;;;;;;;9.55;5.13;;;;;;;25.32;11.98;98130.66;5038322;28;20079;-89
2021/04/27 05:56:02;;;;;;;11.32;5.32;;;;;;;20.99;14.83;98130.47;5033618;28;20411;-89
2021/04/27 05:58:29;;;;;;;10.90;4.88;;;;;;;20.42;15.66;98135.69;5050579;28;20127;-90
2021/04/27 06:00:55;;;;;;;7.68;3.92;;;;;;;21.33;15.00;98138.97;5040955;28;20037;-89
2021/04/27 06:03:21;;;;;;;11.23;5.13;;;;;;;20.51;16.04;98138.81;5040485;28;20064;-90
2021/04/27 06:05:47;;;;;;;8.85;4.18;;;;;;;21.36;14.70;98140.91;5046310;28;20648;-90
2021/04/27 06:08:13;;;;;;;6.97;3.65;;;;;;;22.33;13.39;98126.22;5038582;28;20387;-90
2021/04/27 06:10:39;;;;;;;5.55;3.00;;;;;;;22.40;13.86;98134.50;5048676;28;20375;-90
2021/04/27 06:13:06;;;;;;;6.40;3.47;;;;;;;22.08;14.03;98133.34;5055117;28;20052;-90
2021/04/27 06:15:32;;;;;;;6.93;3.45;;;;;;;20.47;15.20;98137.25;5053648;28;20390;-90
2021/04/27 06:17:58;;;;;;;7.93;3.60;;;;;;;20.39;15.44;98139.31;5043930;28;20068;-91
2021/04/27 06:20:24;;;;;;;6.40;3.70;;;;;;;21.28;15.06;98145.00;5054929;28;20025;-90
2021/04/27 06:22:50;;;;;;;4.88;3.10;;;;;;;21.19;14.64;98130.72;5055235;28;20037;-90
2021/04/27 06:25:16;;;;;;;7.60;4.10;;;;;;;19.59;16.72;98138.44;5044601;28;20360;-91
2021/04/27 06:27:42;;;;;;;9.85;4.38;;;;;;;19.99;15.70;98139.88;5044035;28;20487;-91
2021/04/27 06:30:11;;;;;;;13.02;5.35;;;;;;;18.73;17.71;98149.25;5050426;28;20104;-91
2021/04/27 06:32:37;;;;;;;9.23;4.22;;;;;;;19.29;16.76;98144.44;5054134;28;20463;-91
2021/04/27 06:35:04;;;;;;;7.90;3.85;;;;;;;18.33;15.80;98153.13;5049652;28;20033;-91
2021/04/27 06:37:31;;;;;;;11.77;3.95;;;;;;;18.87;16.46;98149.25;5050403;28;20029;-91
2021/04/27 06:39:57;;;;;;;9.25;4.57;;;;;;;17.12;17.95;98162.84;5044214;28;20041;-91
2021/04/27 06:42:23;;;;;;;6.25;3.35;;;;;;;18.76;16.56;98154.00;5051919;28;20400;-91
2021/04/27 06:44:49;;;;;;;10.95;5.78;;;;;;;17.00;17.53;98165.09;5043175;28;20379;-91
2021/04/27 06:47:16;;;;;;;14.02;4.97;;;;;;;17.42;17.55;98159.84;5043566;28;20435;-91
2021/04/27 06:49:42;;;;;;;10.65;4.90;;;;;;;17.59;16.75;98161.16;5054285;28;20037;-91
2021/04/27 06:52:09;;;;;;;9.75;4.57;;;;;;;19.08;15.78;98161.16;5051343;28;20032;-91
2021/04/27 06:54:35;;;;;;;7.45;3.55;;;;;;;20.30;16.07;98152.91;5046005;28;20501;-91
2021/04/27 06:57:03;;;;;;;6.25;3.13;;;;;;;22.67;13.67;98151.31;5047568;28;20057;-90
2021/04/27 06:59:32;;;;;;;9.73;4.85;;;;;;;19.27;15.23;98155.19;5058111;28;20049;-91
2021/04/27 07:01:59;;;;;;;9.95;5.10;;;;;;;17.41;17.11;98163.81;5052897;28;20033;-91
2021/04/27 07:04:25;;;;;;;7.90;4.03;;;;;;;18.61;16.25;98153.19;5044987;28;20037;-91
2021/04/27 07:06:52;;;;;;;7.85;3.92;;;;;;;21.12;14.67;98158.72;5061721;28;20039;-91
2021/04/27 07:09:18;;;;;;;7.72;3.83;;;;;;;21.05;14.00;98159.56;5059090;28;20051;-91
2021/04/27 07:11:45;;;;;;;11.23;5.07;;;;;;;20.08;15.43;98156.16;5055769;28;20055;-91
2021/04/27 07:14:11;;;;;;;7.18;3.70;;;;;;;21.76;13.99;98165.25;5051340;28;20032;-91
2021/04/27 07:16:37;;;;;;;10.10;4.97;;;;;;;20.34;15.75;98162.03;5043859;28;20036;-91
2021/04/27 07:19:03;;;;;;;7.13;2.92;;;;;;;20.09;14.93;98157.75;5051221;28;20032;-91
2021/04/27 07:21:29;;;;;;;7.78;4.25;;;;;;;22.05;14.16;98150.97;5051985;28;20045;-90
2021/04/27 07:23:55;;;;;;;6.20;2.78;;;;;;;23.31;12.52;98148.28;5046145;28;20029;-91
2021/04/27 07:26:22;;;;;;;10.43;4.00;;;;;;;20.73;13.47;98152.59;5047464;28;20024;-91
2021/04/27 07:28:48;;;;;;;8.93;4.10;;;;;;;18.44;15.96;98165.03;5034521;28;20041;-91
2021/04/27 07:31:14;;;;;;;8.40;4.50;;;;;;;17.82;16.69;98161.69;5042764;28;20029;-91
2021/04/27 07:33:40;;;;;;;8.27;4.13;;;;;;;18.39;16.58;98162.69;5039392;28;20033;-91
2021/04/27 07:36:06;;;;;;;7.70;4.15;;;;;;;18.12;17.19;98158.63;5035609;28;20128;-90
2021/04/27 07:38:33;;;;;;;8.32;3.67;;;;;;;17.24;17.32;98170.84;5043058;28;20083;-91
2021/04/27 07:41:00;;;;;;;8.27;3.67;;;;;;;17.25;17.14;98166.06;5042294;28;20033;-91
2021/04/27 07:43:26;;;;;;;6.30;3.65;;;;;;;17.71;16.74;98166.41;5043852;28;20100;-91
2021/04/27 07:45:52;;;;;;;7.68;3.20;;;;;;;20.68;13.76;98159.41;5042006;28;20029;-91
2021/04/27 07:48:18;;;;;;;8.85;3.92;;;;;;;19.46;15.13;98159.56;5042581;28;20491;-90
2021/04/27 07:50:44;;;;;;;10.52;4.55;;;;;;;18.50;16.55;98169.06;5038390;28;20116;-91
2021/04/27 07:53:10;;;;;;;5.88;2.75;;;;;;;22.82;13.32;98146.28;5043152;28;20029;-93
2021/04/27 07:55:37;;;;;;;5.85;3.50;;;;;;;20.83;14.22;98158.13;5058389;28;20033;-91
2021/04/27 07:58:04;;;;;;;6.65;3.13;;;;;;;18.96;15.48;98160.75;5046727;28;20033;-91
2021/04/27 08:00:30;;;;;;;6.10;2.75;;;;;;;18.09;15.73;98159.38;5048663;28;20040;-89
2021/04/27 08:02:56;;;;;;;7.05;3.67;;;;;;;19.49;14.60;98155.97;5048027;28;20039;-92
2021/04/27 08:05:23;;;;;;;4.97;2.45;;;;;;;21.91;14.30;98157.53;5052557;28;20036;-91
2021/04/27 08:07:49;;;;;;;7.88;3.42;;;;;;;19.03;15.44;98160.75;5048208;28;20041;-92
2021/04/27 08:10:16;;;;;;;5.18;2.63;;;;;;;20.23;14.74;98152.13;5051072;28;20163;-91
2021/04/27 08:12:46;;;;;;;7.50;3.28;;;;;;;19.51;14.69;98150.00;5050264;28;20044;-91
2021/04/27 08:15:14;;;;;;;7.90;3.47;;;;;;;19.05;14.82;98161.16;5054938;28;20021;-92
2021/04/27 08:17:41;;;;;;;6.22;2.50;;;;;;;19.70;15.02;98161.47;5052943;28;20478;-91
2021/04/27 08:20:09;;;;;;;5.70;2.88;;;;;;;18.72;15.47;98159.56;5056303;28;20385;-91
2021/04/27 08:22:36;;;;;;;5.82;2.92;;;;;;;20.81;13.89;98160.53;5058864;28;20025;-91
2021/04/27 08:25:04;;;;;;;3.90;2.65;;;;;;;19.90;14.56;98151.47;5054088;28;20490;-92
2021/04/27 08:27:32;;;;;;;5.05;2.97;;;;;;;22.14;12.82;98149.25;5059573;28;20036;-92
2021/04/27 08:29:58;;;;;;;5.00;2.58;;;;;;;21.30;13.88;98162.94;5051437;28;20112;-91
2021/04/27 08:32:25;;;;;;;6.88;2.33;;;;;;;20.64;12.81;98161.44;5043766;28;20037;-91
2021/04/27 08:34:51;;;;;;;4.00;2.50;;;;;;;20.99;13.97;98165.97;5047533;28;20032;-91
2021/04/27 08:37:17;;;;;;;4.63;2.92;;;;;;;21.10;13.42;98156.31;5051290;28;20051;-92
2021/04/27 08:39:44;;;;;;;4.95;3.03;;;;;;;21.71;13.07;98165.69;5055795;28;20537;-92
2021/04/27 08:42:14;;;;;;;5.30;2.58;;;;;;;22.80;12.63;98151.53;5050915;28;20033;-92
2021/04/27 08:44:41;;;;;;;4.95;2.97;;;;;;;22.60;12.92;98152.22;5056261;28;20049;-92
2021/04/27 08:47:08;;;;;;;8.05;2.70;;;;;;;22.80;14.00;98148.72;5053732;28;20100;-92
2021/04/27 08:49:35;;;;;;;5.90;3.15;;;;;;;22.57;12.52;98150.22;5051696;28;20064;-92
2021/04/27 08:52:01;;;;;;;5.93;3.03;;;;;;;21.21;15.77;98150.66;5056007;28;20021;-91
2021/04/27 08:54:28;;;;;;;4.38;2.45;;;;;;;23.64;12.80;98150.06;5051787;28;20033;-91
2021/04/27 08:56:55;;;;;;;4.45;2.20;;;;;;;25.10;11.86;98149.31;5052433;28;20483;-91
2021/04/27 08:59:21;;;;;;;4.03;2.65;;;;;;;24.54;12.35;98139.41;5051947;28;20094;-91
2021/04/27 09:01:48;;;;;;;5.43;3.08;;;;;;;23.08;13.18;98137.84;5052797;28;20112;-91
2021/04/27 09:04:37;;;;;;;6.68;3.22;;;;;;;22.57;12.45;98147.44;5053308;28;20045;-90
2021/04/27 09:07:05;;;;;;;4.57;3.15;;;;;;;20.31;14.42;98148.91;5049625;28;20038;-92
2021/04/27 09:09:39;;;;;;;6.03;3.40;;;;;;;20.83;13.71;98143.38;5050217;28;20118;-92
2021/04/27 09:12:06;;;;;;;6.22;3.28;;;;;;;21.05;13.66;98156.00;5049004;28;20033;-92
2021/04/27 09:14:35;;;;;;;5.25;3.38;;;;;;;21.02;14.99;98146.41;5051233;28;20507;-91
2021/04/27 09:17:04;;;;;;;5.82;2.95;;;;;;;20.46;14.94;98147.63;5052131;28;20029;-91
2021/04/27 09:19:41;;;;;;;7.03;3.05;;;;;;;19.70;14.97;98138.38;5056279;28;20045;-91
2021/04/27 09:22:14;;;;;;;4.05;2.53;;;;;;;22.64;13.26;98138.97;5053041;28;20029;-92
2021/04/27 09:24:44;;;;;;;5.88;3.00;;;;;;;24.32;11.59;98143.94;5048495;28;20029;-92
2021/04/27 09:27:11;;;;;;;3.50;2.70;;;;;;;23.43;11.92;98139.28;5053986;28;20102;-92
2021/04/27 09:29:42;;;;;;;7.60;3.08;;;;;;;21.13;13.33;98144.34;5053176;28;20029;-91
2021/04/27 09:32:09;;;;;;;6.57;2.78;;;;;;;21.68;14.98;98144.16;5043868;28;20029;-90
2021/04/27 09:34:40;;;;;;;5.10;3.13;;;;;;;23.25;13.07;98127.56;5045079;28;20055;-91
2021/04/27 09:37:07;;;;;;;;;;;;;;;22.84;11.79;98125.06;5054932;28;20028;-92
2021/04/27 09:39:43;;;;;;;5.47;3.35;;;;;;;21.20;13.03;98135.09;5051745;28;19920;-91
2021/04/27 09:42:21;;;;;;;6.95;2.92;;;;;;;22.56;12.67;98123.47;5053583;28;20025;-91
2021/04/27 09:44:52;;;;;;;4.28;2.72;;;;;;;22.68;14.17;98114.50;5049930;28;20541;-90
2021/04/27 09:47:29;;;;;;;7.05;3.55;;;;;;;20.20;14.47;98120.25;5046546;28;20048;-91
2021/04/27 09:50:08;;;;;;;2.03;1.60;;;;;;;22.37;12.05;98112.16;5054779;28;20044;-90
2021/04/27 09:52:43;;;;;;;3.72;2.00;;;;;;;23.71;11.59;98116.28;5059652;28;20035;-91
2021/04/27 09:55:13;;;;;;;3.72;1.80;;;;;;;24.93;12.51;98118.84;5053618;28;20044;-91
2021/04/27 09:57:46;;;;;;;1.58;1.23;;;;;;;25.97;10.76;98113.66;5051979;28;20450;-91
2021/04/27 10:00:35;;;;;;;4.57;2.17;;;;;;;25.40;10.76;98109.59;5054933;28;20455;-91
2021/04/27 10:03:10;;;;;;;5.00;2.97;;;;;;;24.30;10.20;98107.84;5050562;28;20437;-91
2021/04/27 10:05:45;;;;;;;6.40;2.40;;;;;;;22.35;14.13;98101.41;5049590;28;20103;-91
2021/04/27 10:08:12;;;;;;;5.22;2.20;;;;;;;20.91;15.31;98114.22;5052043;28;20065;-91
2021/04/27 10:10:39;;;;;;;2.97;1.83;;;;;;;20.75;14.32;98108.38;5054652;28;20147;-90
2021/04/27 10:13:08;;;;;;;3.03;2.45;;;;;;;20.77;12.71;98114.31;5053936;28;20099;-91
2021/04/27 10:15:35;;;;;;;4.18;2.20;;;;;;;20.78;13.03;98113.09;5050195;28;20037;-90
2021/04/27 10:18:04;;;;;;;2.70;1.83;;;;;;;23.48;12.52;98105.13;5053144;28;20037;-91
2021/04/27 10:20:31;;;;;;;2.13;1.63;;;;;;;26.03;9.04;98094.97;5056541;28;20520;-90
2021/04/27 10:22:58;;;;;;;2.40;1.52;;;;;;;26.02;10.85;98096.22;5048872;28;20037;-90
2021/04/27 10:25:27;;;;;;;4.15;2.40;;;;;;;24.77;11.36;98088.75;5051094;28;20024;-90
2021/04/27 10:27:55;;;;;;;1.80;1.60;;;;;;;23.73;11.85;98087.84;5052467;28;20060;-89
2021/04/27 10:30:22;;;;;;;3.70;1.70;;;;;;;26.07;10.93;98075.94;5054904;28;20029;-90
2021/04/27 10:33:03;;;;;;;2.38;1.60;;;;;;;27.85;8.91;98078.06;5050643;28;20078;-89
2021/04/27 10:35:35;;;;;;;4.22;1.70;;;;;;;24.65;10.51;98080.97;5048404;28;20108;-90
2021/04/27 10:38:05;;;;;;;2.60;1.40;;;;;;;25.05;10.16;98076.78;5050168;28;20041;-89
2021/04/27 10:40:40;;;;;;;2.95;1.70;;;;;;;25.53;10.46;98063.91;5053352;28;20041;-90
2021/04/27 10:43:27;;;;;;;2.13;1.35;;;;;;;26.93;9.40;98063.63;5046043;28;20037;-90
2021/04/27 10:46:19;;;;;;;1.70;1.30;;;;;;;27.03;9.41;98065.28;5057229;28;20028;-91
2021/04/27 10:48:46;;;;;;;1.38;0.90;;;;;;;27.59;8.60;98063.31;5054697;28;20384;-91
2021/04/27 10:51:24;;;;;;;5.82;1.58;;;;;;;27.72;8.55;98060.44;5053492;28;20044;-91
2021/04/27 10:54:18;;;;;;;1.65;1.17;;;;;;;26.37;8.99;98055.75;5055440;28;20497;-92
2021/04/27 10:57:03;;;;;;;1.30;1.15;;;;;;;26.86;8.52;98061.06;5059968;28;20028;-90
2021/04/27 10:59:47;;;;;;;1.38;1.20;;;;;;;26.01;9.92;98058.84;5054559;28;20051;-91
2021/04/27 11:02:17;;;;;;;2.03;1.33;;;;;;;25.36;9.81;98055.50;5047848;28;20061;-90
2021/04/27 11:04:45;;;;;;;1.80;1.42;;;;;;;26.53;8.37;98046.41;5053378;28;20152;-90
2021/04/27 11:07:15;;;;;;;1.60;1.40;;;;;;;26.73;8.98;98047.75;5052931;28;20040;-90
2021/04/27 11:10:03;;;;;;;1.88;1.50;;;;;;;24.69;10.58;98043.16;5048874;28;20040;-90
2021/04/27 11:12:33;;;;;;;2.72;1.48;;;;;;;26.88;10.86;98039.63;5043069;28;20068;-91
2021/04/27 11:15:19;;;;;;;1.77;1.10;;;;;;;27.53;9.39;98033.34;5048785;28;20033;-91
2021/04/27 11:18:09;;;;;;;4.45;1.40;;;;;;;24.70;8.82;98041.16;5052751;28;20433;-92
2021/04/27 11:20:56;;;;;;;2.40;1.52;;;;;;;26.21;9.89;98047.41;5052003;28;20102;-91
2021/04/27 11:23:39;;;;;;;2.15;1.20;;;;;;;28.51;7.83;98031.56;5042073;28;20172;-90
2021/04/27 11:26:31;;;;;;;2.00;1.27;;;;;;;29.18;6.65;98037.25;5042295;28;20040;-91
2021/04/27 11:28:59;;;;;;;2.20;1.50;;;;;;;27.72;8.19;98027.38;5045115;28;20064;-92
2021/04/27 11:31:26;;;;;;;3.42;1.60;;;;;;;25.80;10.05;98020.09;5048506;28;20029;-91
2021/04/27 11:34:00;;;;;;;2.17;1.30;;;;;;;27.52;9.33;98026.13;5043742;28;20491;-93
2021/04/27 11:36:40;;;;;;;2.17;1.33;;;;;;;26.47;8.54;98017.22;5055831;28;20064;-92
2021/04/27 11:39:14;;;;;;;2.80;2.05;;;;;;;26.07;10.15;98017.66;5049429;28;20144;-91